KMBS/MBS METAR and TAF weather

Enter ICAO airport designator
Station Type Date Time Source
KMBS METAR 2020/01/19 14:14 UTC NOAA

KMBS 191414Z 25016KT 8SM SCT026 OVC085 M06/M10 A2996 RMK AO2 T10611100


Station Type Date Time Source
KMBS Decoded METAR 2020/01/19 14:14 UTC NOAA

MBS INTERNATIONAL AIRPORT, MI, United States (KMBS) 43-32N 084-05W 202M
Jan 19, 2020 - 09:14 AM EST / 2020.01.19 1414 UTC
Wind: from the WSW (250 degrees) at 18 MPH (16 KT):0
Visibility: 8 mile(s):0
Sky conditions: overcast
Temperature: 21.0 F (-6.1 C)
Windchill: 6 F (-14 C):1
Dew Point: 14.0 F (-10.0 C)
Relative Humidity: 73%
Pressure (altimeter): 29.96 in. Hg (1014 hPa)
ob: KMBS 191414Z 25016KT 8SM SCT026 OVC085 M06/M10 A2996 RMK AO2 T10611100
cycle: 14

Station Type Date Time Source
KMBS TAF 2020/01/19 12:22 UTC NOAA

TAF KMBS 191120Z 1912/2012 27016G26KT P6SM OVC015
TEMPO 1912/1914 3SM -SHSN
FM191400 34012G22KT P6SM SCT025 BKN035
FM192200 33008KT P6SM BKN035
FM200100 32007KT P6SM SKC

Example: see airport list